Time;durP1;ratioP1;P1;durP2;ratioP2;P2;SDS_P1;SDS_P2;PMS_P1;PMS_P2;Temp;Humidity;BMP_temperature;BMP_pressure;BME280_temperature;BME280_humidity;BME280_pressure;Samples;Min_cycle;Max_cycle;Signal;HPM_P1;HPM_P2
2021/09/12 00:01:06;;;;;;;3.47;2.50;;;;;;;11.85;68.96;95059.94;5111686;27;20054;-67
2021/09/12 00:03:33;;;;;;;2.47;1.80;;;;;;;11.84;68.58;95053.13;5126316;27;20508;-67
2021/09/12 00:06:00;;;;;;;3.33;2.15;;;;;;;11.90;68.68;95067.06;5114240;27;20127;-67
2021/09/12 00:08:28;;;;;;;3.60;2.25;;;;;;;11.84;69.22;95063.56;5101781;28;20035;-67
2021/09/12 00:10:54;;;;;;;3.17;2.13;;;;;;;11.79;69.63;95063.47;5107276;27;20047;-67
2021/09/12 00:13:21;;;;;;;4.18;2.70;;;;;;;11.69;69.60;95061.47;5116115;27;20049;-67
2021/09/12 00:15:49;;;;;;;2.92;2.10;;;;;;;11.67;69.72;95069.53;5126329;27;20430;-67
2021/09/12 00:18:16;;;;;;;5.40;1.80;;;;;;;11.64;69.54;95063.97;5114556;27;20167;-67
2021/09/12 00:20:44;;;;;;;5.15;2.08;;;;;;;11.58;71.46;95057.88;5107660;27;20051;-67
2021/09/12 00:23:10;;;;;;;3.67;2.33;;;;;;;11.45;72.75;95065.94;5116805;27;20054;-67
2021/09/12 00:25:37;;;;;;;5.22;2.70;;;;;;;11.38;71.70;95070.47;5116630;27;20055;-67
2021/09/12 00:28:04;;;;;;;3.45;2.22;;;;;;;11.35;71.55;95065.75;5125648;27;20037;-67
2021/09/12 00:30:31;;;;;;;3.70;2.05;;;;;;;11.37;71.53;95058.47;5124023;27;20115;-67
2021/09/12 00:32:58;;;;;;;3.55;2.15;;;;;;;11.33;72.00;95068.56;5117305;27;20074;-67
2021/09/12 00:35:25;;;;;;;4.18;2.08;;;;;;;11.17;71.70;95049.22;5124656;27;20512;-67
2021/09/12 00:37:53;;;;;;;3.97;2.38;;;;;;;11.26;71.36;95068.69;5089711;28;20067;-67
2021/09/12 00:40:21;;;;;;;4.25;3.20;;;;;;;11.24;70.91;95065.53;5113468;27;20051;-67
2021/09/12 00:42:49;;;;;;;4.22;2.63;;;;;;;11.25;70.55;95064.50;5116430;27;20120;-67
2021/09/12 00:45:16;;;;;;;4.18;2.92;;;;;;;11.23;71.29;95063.94;5121792;27;20374;-67
2021/09/12 00:47:46;;;;;;;4.47;3.25;;;;;;;11.13;71.40;95052.50;5107424;28;20055;-67
2021/09/12 00:50:15;;;;;;;3.25;2.22;;;;;;;11.16;71.12;95052.81;5107803;27;20047;-67
2021/09/12 00:52:45;;;;;;;2.45;1.90;;;;;;;11.20;71.05;95064.41;5107219;28;20031;-67
2021/09/12 00:55:14;;;;;;;4.20;2.63;;;;;;;11.22;71.16;95067.56;5107456;28;20039;-66
2021/09/12 00:57:43;;;;;;;5.10;2.17;;;;;;;11.22;71.44;95070.19;5116150;27;20035;-67
2021/09/12 01:00:10;;;;;;;9.82;2.38;;;;;;;11.12;71.06;95072.56;5127937;27;20399;-66
2021/09/12 01:02:38;;;;;;;4.75;2.63;;;;;;;11.06;71.53;95073.47;5127435;27;20038;-67
2021/09/12 01:05:07;;;;;;;4.82;3.00;;;;;;;11.02;72.02;95072.31;5119553;27;20067;-67
2021/09/12 01:07:34;;;;;;;4.93;2.47;;;;;;;10.95;71.65;95066.44;5107442;28;20052;-67
2021/09/12 01:10:04;;;;;;;3.58;2.10;;;;;;;10.93;71.39;95068.47;5105650;28;20489;-67
2021/09/12 01:12:33;;;;;;;5.43;2.28;;;;;;;10.89;72.02;95074.16;5121538;27;20043;-66
2021/09/12 01:15:00;;;;;;;13.13;3.70;;;;;;;10.87;71.85;95076.19;5127441;27;20039;-67
2021/09/12 01:17:31;;;;;;;9.43;3.33;;;;;;;10.75;71.93;95066.78;5127260;27;20039;-67
2021/09/12 01:19:58;;;;;;;6.32;2.75;;;;;;;10.84;71.99;95071.44;5106644;28;20032;-67
2021/09/12 01:22:25;;;;;;;8.75;4.20;;;;;;;10.88;71.60;95072.56;5114376;27;20537;-67
2021/09/12 01:24:52;;;;;;;6.57;3.80;;;;;;;10.86;71.59;95079.81;5106898;28;20089;-67
2021/09/12 01:27:19;;;;;;;8.50;3.20;;;;;;;10.84;71.98;95076.66;5123264;28;20043;-67
2021/09/12 01:29:46;;;;;;;4.20;2.45;;;;;;;10.82;71.40;95073.47;5107849;28;20500;-66
2021/09/12 01:32:14;;;;;;;6.05;3.45;;;;;;;10.82;72.21;95073.47;5105267;28;20039;-67
2021/09/12 01:34:40;;;;;;;8.65;3.70;;;;;;;10.81;72.49;95077.09;5114917;28;20043;-67
2021/09/12 06:46:43;;;;;;;4.57;2.70;;;;;;;13.80;65.68;95115.22;4950838;28;1320045;-67
2021/09/12 06:49:10;;;;;;;4.25;2.55;;;;;;;13.94;65.45;95121.66;5017539;28;20056;-67
2021/09/12 06:51:37;;;;;;;5.75;2.83;;;;;;;14.02;65.46;95127.50;5001914;28;20064;-67
2021/09/12 06:54:04;;;;;;;4.10;2.67;;;;;;;13.98;65.03;95129.06;5019911;28;20050;-67
2021/09/12 06:56:31;;;;;;;4.80;3.13;;;;;;;14.07;65.03;95130.19;5019225;28;20065;-67
2021/09/12 06:58:57;;;;;;;6.68;3.63;;;;;;;14.17;64.92;95135.56;5006851;28;20067;-67
2021/09/12 07:01:24;;;;;;;4.82;2.65;;;;;;;14.28;64.64;95134.63;5013229;28;20482;-67
2021/09/12 07:03:52;;;;;;;10.27;4.55;;;;;;;14.40;65.57;95131.06;5015812;28;20081;-67
2021/09/12 07:06:19;;;;;;;5.13;3.20;;;;;;;14.56;64.59;95135.41;5014831;28;20056;-67
2021/09/12 07:08:47;;;;;;;5.63;3.35;;;;;;;14.74;63.78;95133.50;5018195;28;20057;-67
2021/09/12 07:11:14;;;;;;;6.47;3.00;;;;;;;14.82;63.49;95135.66;5012066;28;20064;-68
2021/09/12 07:13:41;;;;;;;7.47;3.88;;;;;;;14.88;62.93;95124.19;5017610;28;21316;-68
2021/09/12 07:16:08;;;;;;;6.03;3.55;;;;;;;15.04;61.85;95139.00;5008393;28;20062;-66
2021/09/12 07:18:35;;;;;;;4.22;2.50;;;;;;;15.15;61.85;95133.81;5017095;28;20058;-67
2021/09/12 07:21:02;;;;;;;6.30;3.22;;;;;;;15.20;59.91;95128.63;5018663;28;20058;-67
2021/09/12 07:23:29;;;;;;;6.45;2.90;;;;;;;15.36;60.11;95124.22;5042020;28;20049;-67
2021/09/12 07:25:56;;;;;;;11.77;4.00;;;;;;;15.49;59.12;95129.84;5058359;28;20408;-66
2021/09/12 07:28:22;;;;;;;8.27;3.35;;;;;;;15.75;59.07;95132.63;5058486;28;20053;-67
2021/09/12 07:30:49;;;;;;;5.15;2.75;;;;;;;15.95;57.84;95120.63;5060198;28;20588;-67
2021/09/12 07:33:16;;;;;;;7.65;3.30;;;;;;;16.13;56.96;95133.28;5051162;28;20521;-66
2021/09/12 07:35:43;;;;;;;4.78;2.50;;;;;;;16.34;56.12;95125.47;5060227;28;20044;-67
2021/09/12 07:38:10;;;;;;;4.47;3.03;;;;;;;16.50;54.61;95127.06;5061237;28;20063;-67
2021/09/12 07:40:36;;;;;;;3.20;2.42;;;;;;;16.49;53.58;95114.97;5060874;28;20044;-68
2021/09/12 07:43:03;;;;;;;5.47;2.38;;;;;;;16.66;53.11;95113.97;5060429;28;20052;-67
2021/09/12 07:45:30;;;;;;;5.50;2.50;;;;;;;16.92;53.07;95120.81;5070525;28;20492;-68
2021/09/12 07:47:57;;;;;;;7.82;3.03;;;;;;;17.09;52.45;95122.41;5095078;28;20065;-68
2021/09/12 07:50:24;;;;;;;5.75;3.22;;;;;;;17.27;51.16;95116.59;5074646;28;20455;-67
2021/09/12 07:52:50;;;;;;;4.32;3.15;;;;;;;17.35;51.69;95116.03;5077962;28;20044;-66
2021/09/12 07:55:18;;;;;;;4.88;2.63;;;;;;;17.43;51.38;95111.28;5075369;28;20052;-66
2021/09/12 07:57:45;;;;;;;8.70;3.20;;;;;;;17.51;50.48;95118.66;5086777;28;20051;-67
2021/09/12 08:00:12;;;;;;;3.63;2.58;;;;;;;17.55;51.51;95104.66;5074664;28;20032;-67
2021/09/12 08:02:39;;;;;;;5.45;2.60;;;;;;;17.78;51.72;95102.50;5075045;28;20425;-68
2021/09/12 08:05:08;;;;;;;3.15;2.22;;;;;;;17.98;51.28;95096.38;5074727;28;20040;-67
2021/09/12 08:07:35;;;;;;;4.65;2.33;;;;;;;18.26;49.08;95107.34;5078315;28;20055;-67
2021/09/12 08:10:02;;;;;;;4.47;3.20;;;;;;;18.39;50.68;95104.06;5079885;28;20051;-67
2021/09/12 08:12:30;;;;;;;6.38;3.75;;;;;;;18.65;49.06;95098.63;5077035;28;20060;-67
2021/09/12 08:14:57;;;;;;;8.02;5.55;;;;;;;18.81;48.48;95097.47;5072899;28;20043;-68
2021/09/12 08:17:23;;;;;;;11.13;5.72;;;;;;;19.07;48.43;95094.63;5082014;28;20056;-67
2021/09/12 08:19:50;;;;;;;3.55;2.50;;;;;;;19.13;47.40;95085.59;5085006;28;20504;-67
2021/09/12 08:22:17;;;;;;;4.03;2.75;;;;;;;19.37;48.25;95098.03;5084932;28;20059;-67
2021/09/12 08:24:44;;;;;;;3.72;2.42;;;;;;;19.46;45.97;95083.16;5085638;28;20718;-67
2021/09/12 08:27:11;;;;;;;6.63;2.95;;;;;;;19.59;47.96;95095.72;5080465;28;20040;-67
2021/09/12 08:29:37;;;;;;;3.40;2.40;;;;;;;19.67;49.14;95095.06;5062701;28;20047;-67
2021/09/12 08:32:05;;;;;;;4.20;2.72;;;;;;;19.94;47.16;95085.81;5076814;28;20045;-68
2021/09/12 08:34:31;;;;;;;4.90;2.78;;;;;;;20.16;46.66;95081.81;5080579;28;20070;-67
2021/09/12 08:36:58;;;;;;;2.92;2.08;;;;;;;20.40;45.16;95084.41;5080388;28;20037;-68
2021/09/12 08:39:25;;;;;;;4.78;2.45;;;;;;;20.63;44.73;95085.41;5086430;28;20475;-68
2021/09/12 08:41:54;;;;;;;4.75;2.80;;;;;;;20.81;43.68;95081.97;5075331;28;20421;-67
2021/09/12 08:44:21;;;;;;;3.72;2.50;;;;;;;20.93;43.35;95072.78;5072590;28;20109;-67
2021/09/12 08:46:48;;;;;;;3.45;2.53;;;;;;;21.11;42.63;95079.88;5086125;28;20048;-67
2021/09/12 08:49:16;;;;;;;7.28;3.05;;;;;;;21.18;42.55;95072.34;5086506;28;20121;-67
2021/09/12 08:51:43;;;;;;;4.75;2.67;;;;;;;21.46;43.24;95067.09;5084429;28;20055;-67
2021/09/12 08:54:10;;;;;;;3.70;2.65;;;;;;;21.51;43.12;95053.75;5073804;28;20105;-68
2021/09/12 08:56:36;;;;;;;3.15;1.98;;;;;;;21.82;42.98;95055.78;5069590;28;20536;-68
2021/09/12 08:59:03;;;;;;;3.88;2.42;;;;;;;22.07;42.53;95053.69;5078765;28;20052;-68
2021/09/12 09:01:32;;;;;;;3.67;2.47;;;;;;;22.41;41.16;95049.81;5079714;28;20047;-68
2021/09/12 09:04:03;;;;;;;4.03;2.10;;;;;;;22.78;39.17;95045.22;5085183;28;20512;-68
2021/09/12 09:06:36;;;;;;;5.60;2.45;;;;;;;23.15;38.84;95045.94;5076510;28;20044;-68
2021/09/12 09:09:07;;;;;;;2.67;1.90;;;;;;;23.31;37.13;95043.66;5077428;28;20040;-68
2021/09/12 09:11:35;;;;;;;4.63;2.20;;;;;;;23.28;36.95;95040.53;5075168;28;20043;-68
2021/09/12 09:14:15;;;;;;;3.47;2.35;;;;;;;23.20;37.80;95043.91;5081116;28;20060;-68
2021/09/12 09:16:44;;;;;;;8.50;2.85;;;;;;;23.52;36.84;95033.28;5080984;28;20044;-68
2021/09/12 09:19:11;;;;;;;3.70;2.55;;;;;;;24.04;36.36;95038.72;5063414;28;20135;-68
2021/09/12 09:21:40;;;;;;;3.42;2.38;;;;;;;24.42;34.90;95036.22;5081196;28;21681;-68
2021/09/12 09:24:25;;;;;;;4.20;2.10;;;;;;;24.43;35.13;95007.72;5085187;28;20052;-69
2021/09/12 09:27:00;;;;;;;6.25;2.55;;;;;;;24.55;33.76;95026.53;5074405;28;20061;-68
2021/09/12 09:29:35;;;;;;;4.85;2.63;;;;;;;24.64;35.12;95012.44;5074103;28;20694;-68
2021/09/12 09:32:01;;;;;;;3.45;2.42;;;;;;;24.96;34.55;95025.22;5075473;28;20045;-68
2021/09/12 09:34:28;;;;;;;3.88;2.20;;;;;;;25.15;34.17;95022.16;5081618;28;20055;-69
2021/09/12 09:37:17;;;;;;;3.17;1.90;;;;;;;25.33;33.08;95022.91;5085151;28;20036;-69
2021/09/12 09:39:49;;;;;;;3.95;2.70;;;;;;;25.32;31.15;95026.69;5080155;28;20524;-67
2021/09/12 09:42:37;;;;;;;3.63;2.08;;;;;;;25.65;32.12;95012.72;5069283;28;20058;-68
2021/09/12 09:45:17;;;;;;;4.85;2.47;;;;;;;26.19;31.75;95027.34;5083438;28;20036;-67
2021/09/12 09:47:51;;;;;;;5.28;3.50;;;;;;;26.07;31.51;95018.16;5076679;28;20123;-68
2021/09/12 09:50:29;;;;;;;3.75;2.38;;;;;;;25.96;29.99;95011.63;5079096;28;20062;-68
2021/09/12 09:52:56;;;;;;;4.63;2.58;;;;;;;26.21;28.32;95011.78;5076351;28;20054;-68
2021/09/12 09:55:25;;;;;;;3.67;2.92;;;;;;;26.47;29.32;95009.66;5075770;28;20047;-68
2021/09/12 09:57:54;;;;;;;4.68;2.45;;;;;;;26.97;27.71;95004.50;5074890;28;20067;-68
2021/09/12 10:00:23;;;;;;;3.85;2.38;;;;;;;27.47;27.72;95003.47;5069262;28;20052;-68
2021/09/12 10:02:50;;;;;;;2.80;2.50;;;;;;;27.72;27.69;95003.47;5083175;28;20648;-68
2021/09/12 10:05:20;;;;;;;3.20;2.05;;;;;;;27.83;27.20;94996.53;5082287;28;20391;-68
2021/09/12 10:07:47;;;;;;;5.30;2.17;;;;;;;27.88;29.39;94998.97;5083195;28;20105;-68
2021/09/12 10:10:16;;;;;;;3.35;2.42;;;;;;;27.90;28.40;95004.78;5077355;28;20040;-67
2021/09/12 10:12:51;;;;;;;4.07;2.90;;;;;;;27.98;28.62;94998.53;5064359;28;20036;-68
2021/09/12 10:15:24;;;;;;;4.65;2.58;;;;;;;28.30;26.47;94998.66;5084306;28;20131;-68
2021/09/12 10:17:52;;;;;;;3.97;2.90;;;;;;;29.02;25.52;95000.56;5077108;28;20043;-68
2021/09/12 10:20:27;;;;;;;2.45;1.83;;;;;;;29.24;24.76;94990.41;5076963;28;20051;-68
2021/09/12 10:22:56;;;;;;;4.45;2.47;;;;;;;29.12;25.36;94992.03;5059218;28;20045;-68
2021/09/12 10:25:25;;;;;;;4.13;2.75;;;;;;;29.64;25.11;94976.00;5071098;28;20707;-68
2021/09/12 10:28:04;;;;;;;3.35;2.58;;;;;;;29.98;23.96;94985.22;5074380;28;20043;-68
2021/09/12 10:30:40;;;;;;;3.28;2.35;;;;;;;30.17;24.11;94987.13;5064400;28;20446;-68
2021/09/12 10:33:11;;;;;;;5.40;2.88;;;;;;;30.50;23.27;94980.50;5083032;28;20044;-68
2021/09/12 10:35:48;;;;;;;3.85;2.03;;;;;;;30.68;22.29;94978.13;5065513;28;20420;-68
2021/09/12 10:38:34;;;;;;;2.92;2.10;;;;;;;30.73;21.97;94979.78;5079341;28;20051;-68
2021/09/12 10:41:03;;;;;;;5.85;2.50;;;;;;;30.26;23.90;94974.25;5083903;28;20048;-68
2021/09/12 10:43:39;;;;;;;3.10;2.20;;;;;;;29.99;23.17;94977.94;5065542;28;20467;-68
2021/09/12 10:46:06;;;;;;;3.58;2.40;;;;;;;29.84;25.64;94974.94;5066222;28;20055;-66
2021/09/12 10:48:34;;;;;;;2.92;2.38;;;;;;;29.34;26.31;94968.44;5066120;28;20414;-66
2021/09/12 10:51:22;;;;;;;3.92;2.63;;;;;;;29.54;26.72;94972.72;5070232;28;20040;-66
2021/09/12 10:54:00;;;;;;;5.32;2.28;;;;;;;30.35;23.54;94970.63;5071309;28;20056;-66
2021/09/12 10:56:35;;;;;;;2.90;2.25;;;;;;;30.14;24.69;94958.28;5060765;28;20048;-66
2021/09/12 10:59:03;;;;;;;2.58;2.15;;;;;;;30.90;22.82;94973.94;5078821;28;20041;-67
2021/09/12 11:01:30;;;;;;;3.03;2.20;;;;;;;31.71;23.37;94967.56;5073417;28;20050;-68
2021/09/12 11:03:59;;;;;;;3.90;2.60;;;;;;;31.95;22.86;94965.56;5081648;28;20598;-66
2021/09/12 11:06:30;;;;;;;3.58;2.55;;;;;;;32.67;20.48;94967.22;5072030;28;20202;-67
2021/09/12 11:08:58;;;;;;;3.08;2.65;;;;;;;32.10;22.95;94959.22;5078432;28;20052;-66
2021/09/12 11:11:26;;;;;;;5.22;2.63;;;;;;;31.04;22.12;94963.47;5065126;28;20398;-66
2021/09/12 11:13:56;;;;;;;3.80;2.38;;;;;;;31.40;21.75;94953.25;5077205;28;20040;-66
2021/09/12 11:16:25;;;;;;;3.03;2.38;;;;;;;32.23;20.24;94959.00;5081630;28;20047;-67
2021/09/12 11:18:59;;;;;;;4.45;3.58;;;;;;;32.55;19.89;94957.44;5081773;28;20424;-66
2021/09/12 11:21:27;;;;;;;3.85;2.60;;;;;;;33.24;19.13;94956.19;5086307;28;20044;-65
2021/09/12 11:24:10;;;;;;;3.65;3.00;;;;;;;32.45;20.28;94952.72;5075276;28;20044;-66
2021/09/12 11:26:37;;;;;;;4.53;2.95;;;;;;;32.67;19.63;94951.03;5069950;28;20052;-66
2021/09/12 11:29:07;;;;;;;3.97;2.60;;;;;;;31.63;20.46;94950.53;5084545;28;20102;-66
2021/09/12 11:31:36;;;;;;;4.88;3.03;;;;;;;31.52;22.29;94936.13;5070152;28;20037;-66
2021/09/12 11:34:03;;;;;;;2.95;2.53;;;;;;;31.32;21.17;94930.06;5076775;28;20134;-66
2021/09/12 11:36:46;;;;;;;3.80;2.65;;;;;;;31.72;23.00;94934.09;5085531;28;20063;-66
2021/09/12 11:39:17;;;;;;;3.72;2.63;;;;;;;31.99;20.17;94931.38;5089387;28;20048;-66
2021/09/12 11:41:44;;;;;;;4.90;3.55;;;;;;;31.91;22.05;94927.03;5089636;28;20516;-66
2021/09/12 11:44:11;;;;;;;4.22;3.30;;;;;;;31.43;24.54;94925.59;5078538;28;20051;-66
2021/09/12 11:46:46;;;;;;;3.83;3.10;;;;;;;30.81;21.46;94930.34;5089223;28;20060;-66
2021/09/12 11:49:13;;;;;;;3.55;2.75;;;;;;;30.41;21.53;94918.91;5075036;28;20051;-66
2021/09/12 11:51:44;;;;;;;4.75;2.78;;;;;;;31.26;23.42;94926.13;5069339;28;20048;-66
2021/09/12 11:54:23;;;;;;;3.05;2.67;;;;;;;32.10;22.68;94901.91;5050742;28;20057;-66
2021/09/12 11:57:01;;;;;;;5.38;2.70;;;;;;;32.19;23.54;94916.63;5084332;28;20044;-66
2021/09/12 11:59:31;;;;;;;3.58;2.50;;;;;;;32.22;22.77;94909.72;5089348;28;20048;-66
2021/09/12 12:01:59;;;;;;;4.57;2.45;;;;;;;32.01;21.79;94910.22;5069000;28;20136;-66
2021/09/12 12:04:28;;;;;;;4.18;3.08;;;;;;;31.65;21.05;94915.16;5075265;28;20115;-67
2021/09/12 12:06:58;;;;;;;2.88;2.33;;;;;;;31.34;22.83;94910.88;5081232;28;20040;-67
2021/09/12 12:09:38;;;;;;;3.35;2.53;;;;;;;30.85;22.58;94907.78;5081842;28;20040;-67
2021/09/12 12:12:13;;;;;;;6.90;2.97;;;;;;;30.77;22.09;94908.03;5072717;28;20040;-66
2021/09/12 12:15:00;;;;;;;4.82;3.15;;;;;;;31.17;19.95;94904.06;5059255;28;20042;-66
2021/09/12 12:17:27;;;;;;;6.35;3.40;;;;;;;31.56;19.63;94906.59;5087844;28;20032;-67
2021/09/12 12:19:56;;;;;;;5.13;4.03;;;;;;;31.77;22.52;94906.88;5087475;28;20119;-66
2021/09/12 12:22:33;;;;;;;4.63;3.13;;;;;;;31.52;22.71;94900.38;5068314;28;20059;-66
2021/09/12 12:25:00;;;;;;;2.78;2.22;;;;;;;31.57;23.59;94908.16;5084180;28;20047;-67
2021/09/12 12:27:27;;;;;;;5.38;3.35;;;;;;;30.77;22.00;94900.72;5071040;28;20477;-66
2021/09/12 12:30:01;;;;;;;2.97;2.67;;;;;;;30.68;22.37;94897.50;5078925;28;20087;-66
2021/09/12 12:32:30;;;;;;;7.30;4.05;;;;;;;30.61;25.08;94890.13;5069193;28;20117;-66
2021/09/12 12:35:01;;;;;;;21.10;9.68;;;;;;;30.74;25.15;94900.66;5066296;28;20071;-66
2021/09/12 12:37:35;;;;;;;4.65;3.70;;;;;;;30.76;22.32;94898.41;5049140;28;20124;-66
2021/09/12 12:40:05;;;;;;;3.47;2.65;;;;;;;30.51;22.97;94896.06;5073389;28;20059;-66
2021/09/12 12:42:44;;;;;;;4.15;3.08;;;;;;;29.99;25.98;94900.06;5068111;28;20048;-66
2021/09/12 12:45:23;;;;;;;7.15;4.43;;;;;;;30.59;24.45;94899.66;5072066;28;20465;-67
2021/09/12 12:48:14;;;;;;;11.82;5.93;;;;;;;31.01;24.17;94893.47;5071930;28;20052;-67
2021/09/12 12:50:46;;;;;;;5.13;3.70;;;;;;;30.80;24.12;94900.03;5067418;28;20549;-66
2021/09/12 12:53:42;;;;;;;3.83;2.60;;;;;;;30.27;25.79;94889.88;5078906;28;20060;-66
2021/09/12 12:56:14;;;;;;;3.95;2.70;;;;;;;30.85;23.63;94890.88;5075007;28;20579;-66
2021/09/12 12:58:42;;;;;;;4.43;3.10;;;;;;;31.44;24.13;94900.25;5078119;28;20615;-66
2021/09/12 13:01:09;;;;;;;3.47;2.90;;;;;;;31.71;22.58;94886.00;5075805;28;20515;-67
2021/09/12 13:03:37;;;;;;;4.63;3.58;;;;;;;32.01;24.07;94894.06;5082234;28;20105;-66
2021/09/12 13:06:08;;;;;;;6.13;3.70;;;;;;;32.48;20.75;94894.59;5081640;28;20068;-67
2021/09/12 13:08:35;;;;;;;4.45;3.35;;;;;;;32.37;21.40;94889.09;5084921;28;20036;-66
2021/09/12 13:11:02;;;;;;;3.75;2.67;;;;;;;32.40;22.16;94893.75;5080874;28;20048;-66
2021/09/12 13:13:29;;;;;;;8.07;5.28;;;;;;;31.65;23.29;94892.88;5070902;28;20438;-66
2021/09/12 13:15:56;;;;;;;9.50;6.72;;;;;;;32.02;23.08;94890.25;5072007;28;20535;-67
2021/09/12 13:18:23;;;;;;;3.47;2.60;;;;;;;30.93;22.11;94887.19;5082045;28;20056;-66
2021/09/12 13:20:52;;;;;;;5.72;3.05;;;;;;;31.04;23.80;94877.41;5079730;28;20052;-66
2021/09/12 13:23:20;;;;;;;4.38;2.90;;;;;;;31.46;23.97;94886.44;5082396;28;20070;-66
2021/09/12 13:25:48;;;;;;;3.60;2.58;;;;;;;31.69;23.78;94883.66;5074991;28;20044;-66
2021/09/12 13:28:15;;;;;;;5.25;3.90;;;;;;;32.28;25.66;94872.47;5085081;28;20528;-66
2021/09/12 13:30:43;;;;;;;7.53;2.92;;;;;;;32.99;22.83;94879.63;5077560;28;20048;-66
2021/09/12 13:33:11;;;;;;;6.28;4.00;;;;;;;32.33;22.30;94882.91;5078460;28;20060;-66
2021/09/12 13:35:38;;;;;;;4.28;2.90;;;;;;;31.45;22.76;94879.50;5076189;28;20908;-66
2021/09/12 13:38:04;;;;;;;5.72;3.10;;;;;;;31.12;23.35;94877.50;5083644;28;20060;-66
2021/09/12 13:40:32;;;;;;;4.07;2.45;;;;;;;30.76;23.67;94871.53;5084515;28;20050;-66
2021/09/12 13:43:00;;;;;;;4.68;2.75;;;;;;;30.62;23.38;94872.84;5079218;28;20056;-66
2021/09/12 13:45:27;;;;;;;3.20;2.45;;;;;;;30.40;24.79;94870.94;5070326;28;20053;-67
2021/09/12 13:47:54;;;;;;;3.72;2.90;;;;;;;29.72;24.76;94859.63;5074082;28;20472;-66
2021/09/12 13:50:21;;;;;;;4.38;3.40;;;;;;;29.47;25.37;94859.88;5084415;28;20047;-66
2021/09/12 13:52:48;;;;;;;4.68;3.72;;;;;;;29.76;24.71;94860.50;5080065;28;20048;-66
2021/09/12 13:55:15;;;;;;;3.35;2.63;;;;;;;29.26;25.73;94870.16;5067874;28;20409;-66
2021/09/12 13:57:42;;;;;;;6.72;3.00;;;;;;;28.92;27.81;94872.44;5074381;28;20044;-66
2021/09/12 14:00:09;;;;;;;3.88;2.88;;;;;;;28.69;27.44;94870.34;5061890;28;21436;-67
2021/09/12 14:02:39;;;;;;;4.82;3.60;;;;;;;28.65;26.60;94864.16;5066752;28;20052;-67
2021/09/12 14:05:06;;;;;;;4.00;3.17;;;;;;;28.40;26.82;94863.50;5065414;28;20514;-67
2021/09/12 14:07:34;;;;;;;4.45;3.20;;;;;;;28.63;27.53;94855.69;5073063;28;20063;-67
2021/09/12 14:10:03;;;;;;;8.40;4.07;;;;;;;28.72;27.70;94864.31;5085269;28;20044;-66
2021/09/12 14:12:29;;;;;;;5.80;4.10;;;;;;;29.07;26.63;94866.25;5068058;28;20055;-67
2021/09/12 14:14:56;;;;;;;7.57;4.40;;;;;;;28.98;26.51;94860.31;5080338;28;20051;-67
2021/09/12 14:17:23;;;;;;;8.40;5.97;;;;;;;29.01;26.11;94851.59;5078074;28;20048;-67
2021/09/12 14:19:50;;;;;;;5.28;4.07;;;;;;;28.94;26.99;94864.81;5084699;28;20081;-67
2021/09/12 14:22:17;;;;;;;8.45;3.80;;;;;;;29.32;26.71;94868.75;5083697;28;20142;-67
2021/09/12 14:24:44;;;;;;;10.13;6.63;;;;;;;29.07;27.59;94858.22;5073701;28;20685;-67
2021/09/12 14:27:11;;;;;;;42.10;23.52;;;;;;;29.48;26.62;94850.72;5076465;28;20060;-67
2021/09/12 14:29:38;;;;;;;10.50;5.28;;;;;;;29.90;25.29;94860.78;5082833;28;20040;-67
2021/09/12 14:32:05;;;;;;;6.18;4.88;;;;;;;29.80;24.61;94850.63;5083493;28;20402;-67
2021/09/12 14:34:37;;;;;;;6.65;5.38;;;;;;;29.30;25.22;94866.44;5066456;28;20044;-68
2021/09/12 14:37:05;;;;;;;5.55;4.05;;;;;;;29.03;25.68;94873.47;5069653;28;20048;-67
2021/09/12 14:39:32;;;;;;;11.38;5.50;;;;;;;28.73;25.51;94871.22;5065718;28;20048;-67
2021/09/12 14:41:59;;;;;;;14.52;7.00;;;;;;;28.32;26.31;94861.75;5074927;28;20123;-67
2021/09/12 14:44:25;;;;;;;7.47;5.30;;;;;;;27.75;27.00;94860.94;5072876;28;20036;-67
2021/09/12 14:46:52;;;;;;;5.88;4.70;;;;;;;27.39;29.18;94870.66;5071790;28;20056;-66
2021/09/12 14:49:19;;;;;;;8.23;5.78;;;;;;;27.45;28.50;94869.28;5084495;28;20048;-67
2021/09/12 14:51:46;;;;;;;9.07;6.50;;;;;;;27.83;27.73;94865.41;5081057;28;20048;-66
2021/09/12 14:54:14;;;;;;;9.13;6.22;;;;;;;28.01;28.07;94869.34;5077382;28;20508;-67
2021/09/12 14:56:41;;;;;;;9.27;6.00;;;;;;;28.39;26.87;94865.38;5072326;28;20028;-67
2021/09/12 14:59:08;;;;;;;7.53;5.70;;;;;;;28.81;26.40;94866.03;5086776;28;20052;-67
2021/09/12 15:01:35;;;;;;;10.27;7.80;;;;;;;28.79;26.40;94859.13;5083329;28;20040;-67
2021/09/12 15:04:03;;;;;;;10.50;6.18;;;;;;;28.28;26.61;94867.00;5072146;28;20052;-67
2021/09/12 15:06:30;;;;;;;11.35;6.43;;;;;;;28.13;27.42;94863.19;5083850;28;20040;-66
2021/09/12 15:08:57;;;;;;;7.80;5.68;;;;;;;28.11;27.19;94861.94;5086460;28;20098;-67
2021/09/12 15:11:23;;;;;;;8.20;6.15;;;;;;;27.72;27.34;94872.34;5086781;28;20051;-67
2021/09/12 15:13:50;;;;;;;6.25;5.07;;;;;;;27.58;27.52;94867.38;5068029;28;20114;-67
2021/09/12 15:16:17;;;;;;;7.30;6.05;;;;;;;27.17;28.76;94870.00;5081812;28;20441;-67
2021/09/12 15:18:44;;;;;;;8.98;5.30;;;;;;;27.39;27.28;94871.44;5052143;28;20058;-67
2021/09/12 15:21:10;;;;;;;7.20;5.07;;;;;;;27.56;28.71;94870.38;5085815;28;20051;-66
2021/09/12 15:23:37;;;;;;;8.32;4.68;;;;;;;27.89;27.91;94872.06;5079347;28;20060;-66
2021/09/12 15:26:04;;;;;;;5.90;4.65;;;;;;;27.76;27.42;94862.53;5071996;28;20528;-67
2021/09/12 15:28:31;;;;;;;9.38;5.80;;;;;;;27.53;28.20;94864.94;5076451;28;20429;-67
2021/09/12 15:30:57;;;;;;;6.00;4.47;;;;;;;27.52;27.19;94872.19;5078202;28;20045;-67
2021/09/12 15:33:24;;;;;;;6.55;4.65;;;;;;;27.24;27.62;94864.84;5080694;28;20064;-67
2021/09/12 15:35:51;;;;;;;6.25;4.70;;;;;;;27.50;26.61;94876.31;5070616;28;20544;-67
2021/09/12 15:38:18;;;;;;;6.38;4.95;;;;;;;27.36;27.32;94868.66;5085235;28;20047;-67
2021/09/12 15:40:46;;;;;;;9.25;4.97;;;;;;;27.29;26.52;94871.13;5067754;28;20121;-67
2021/09/12 15:43:13;;;;;;;6.07;4.35;;;;;;;26.94;27.81;94868.88;5085378;28;20072;-67
2021/09/12 15:45:39;;;;;;;5.43;4.35;;;;;;;26.80;28.42;94871.88;5085025;28;20048;-67
2021/09/12 15:48:06;;;;;;;6.35;4.18;;;;;;;26.85;28.17;94874.34;5068624;28;20105;-67
2021/09/12 15:50:33;;;;;;;6.47;4.65;;;;;;;26.80;27.34;94871.88;5084889;28;20055;-67
2021/09/12 15:53:01;;;;;;;6.93;4.53;;;;;;;26.33;27.97;94865.00;5086941;28;20044;-67
2021/09/12 15:55:28;;;;;;;8.32;5.25;;;;;;;25.90;28.92;94863.50;5080726;28;20630;-67
2021/09/12 15:57:55;;;;;;;6.70;4.47;;;;;;;25.78;29.34;94866.13;5075756;28;20044;-66
2021/09/12 16:00:22;;;;;;;6.78;4.55;;;;;;;25.64;29.92;94864.50;5085732;28;20036;-67
2021/09/12 16:02:48;;;;;;;6.63;4.40;;;;;;;25.34;30.55;94861.88;5085142;28;20466;-67
2021/09/12 16:05:16;;;;;;;5.70;4.28;;;;;;;25.18;30.39;94860.88;5073187;28;20473;-66
2021/09/12 16:07:43;;;;;;;8.40;5.18;;;;;;;24.85;31.61;94850.88;5086479;28;20055;-67
2021/09/12 16:10:10;;;;;;;8.10;4.55;;;;;;;24.69;31.63;94861.28;5086739;28;20059;-67
2021/09/12 16:12:37;;;;;;;7.72;4.57;;;;;;;24.44;31.57;94860.25;5078489;28;20053;-67
2021/09/12 16:15:05;;;;;;;7.22;4.78;;;;;;;23.98;32.50;94861.75;5077396;28;20040;-67
2021/09/12 16:17:31;;;;;;;8.07;4.03;;;;;;;23.94;32.20;94861.59;5076390;28;20049;-67
2021/09/12 16:19:58;;;;;;;6.57;4.53;;;;;;;23.78;33.41;94850.63;5084136;28;20056;-66
2021/09/12 16:22:25;;;;;;;6.55;4.68;;;;;;;23.68;32.96;94850.97;5085640;28;20048;-67
2021/09/12 16:24:52;;;;;;;6.10;3.75;;;;;;;23.56;32.51;94858.78;5080429;28;20131;-67
2021/09/12 16:27:19;;;;;;;7.25;4.10;;;;;;;23.43;33.61;94849.84;5069274;28;20055;-66
2021/09/12 16:29:50;;;;;;;10.77;4.57;;;;;;;23.17;34.14;94852.47;5067554;28;20059;-67
2021/09/12 16:32:17;;;;;;;7.03;4.70;;;;;;;22.97;34.29;94849.25;5081055;28;20043;-67
2021/09/12 16:34:49;;;;;;;5.35;4.50;;;;;;;22.78;34.71;94852.19;5082718;28;20765;-67
2021/09/12 16:37:17;;;;;;;6.43;4.38;;;;;;;22.55;35.03;94838.22;5066501;28;20115;-65
2021/09/12 16:39:45;;;;;;;5.68;3.90;;;;;;;22.59;34.47;94860.38;5069556;28;20064;-67
2021/09/12 16:42:12;;;;;;;7.45;4.10;;;;;;;22.46;35.63;94855.97;5083289;28;20056;-67
2021/09/12 16:44:42;;;;;;;5.72;3.80;;;;;;;22.39;34.67;94860.94;5075795;28;20068;-67
2021/09/12 16:47:18;;;;;;;4.97;3.72;;;;;;;22.30;35.45;94853.69;5084820;28;20060;-67
2021/09/12 16:49:44;;;;;;;7.13;4.95;;;;;;;22.15;35.63;94862.03;5084897;28;20054;-67
2021/09/12 16:52:12;;;;;;;5.63;4.55;;;;;;;21.99;36.11;94856.31;5079416;28;20460;-67